sensor_id;sensor_type;location;lat;lon;timestamp;P1;durP1;ratioP1;P2;durP2;ratioP2
37973;SDS011;23796;51.458;7.000;2023-02-05T00:01:06;33.25;;;14.43;;
37973;SDS011;23796;51.458;7.000;2023-02-05T00:03:31;25.42;;;13.23;;
37973;SDS011;23796;51.458;7.000;2023-02-05T00:05:59;25.60;;;12.82;;
37973;SDS011;23796;51.458;7.000;2023-02-05T00:08:25;26.92;;;12.63;;
37973;SDS011;23796;51.458;7.000;2023-02-05T00:10:51;27.58;;;13.05;;
37973;SDS011;23796;51.458;7.000;2023-02-05T00:13:17;26.83;;;12.20;;
37973;SDS011;23796;51.458;7.000;2023-02-05T00:15:43;26.27;;;11.88;;
37973;SDS011;23796;51.458;7.000;2023-02-05T00:18:11;25.90;;;12.40;;
37973;SDS011;23796;51.458;7.000;2023-02-05T00:20:37;27.60;;;12.73;;
37973;SDS011;23796;51.458;7.000;2023-02-05T00:23:03;29.00;;;9.90;;
37973;SDS011;23796;51.458;7.000;2023-02-05T00:25:28;21.92;;;8.50;;
37973;SDS011;23796;51.458;7.000;2023-02-05T00:27:54;22.08;;;7.40;;
37973;SDS011;23796;51.458;7.000;2023-02-05T00:30:24;22.35;;;7.10;;
37973;SDS011;23796;51.458;7.000;2023-02-05T00:32:52;25.52;;;6.97;;
37973;SDS011;23796;51.458;7.000;2023-02-05T00:35:18;20.13;;;6.93;;
37973;SDS011;23796;51.458;7.000;2023-02-05T00:37:46;22.15;;;7.05;;
37973;SDS011;23796;51.458;7.000;2023-02-05T00:40:11;21.13;;;6.35;;
37973;SDS011;23796;51.458;7.000;2023-02-05T00:42:37;22.77;;;7.03;;
37973;SDS011;23796;51.458;7.000;2023-02-05T00:45:02;20.20;;;6.38;;
37973;SDS011;23796;51.458;7.000;2023-02-05T00:47:28;22.35;;;7.30;;
37973;SDS011;23796;51.458;7.000;2023-02-05T00:49:54;20.13;;;6.82;;
37973;SDS011;23796;51.458;7.000;2023-02-05T00:52:22;24.35;;;6.53;;
37973;SDS011;23796;51.458;7.000;2023-02-05T00:54:47;21.05;;;7.60;;
37973;SDS011;23796;51.458;7.000;2023-02-05T00:57:13;22.65;;;7.45;;
37973;SDS011;23796;51.458;7.000;2023-02-05T00:59:38;21.52;;;7.07;;
37973;SDS011;23796;51.458;7.000;2023-02-05T01:02:06;19.85;;;6.65;;
37973;SDS011;23796;51.458;7.000;2023-02-05T01:04:32;18.83;;;6.43;;
37973;SDS011;23796;51.458;7.000;2023-02-05T01:06:57;19.63;;;6.82;;
37973;SDS011;23796;51.458;7.000;2023-02-05T01:09:25;22.40;;;7.13;;
37973;SDS011;23796;51.458;7.000;2023-02-05T01:11:51;19.73;;;7.22;;
37973;SDS011;23796;51.458;7.000;2023-02-05T01:14:19;18.15;;;7.28;;
37973;SDS011;23796;51.458;7.000;2023-02-05T01:16:44;22.05;;;7.22;;
37973;SDS011;23796;51.458;7.000;2023-02-05T01:19:10;25.65;;;7.07;;
37973;SDS011;23796;51.458;7.000;2023-02-05T01:21:36;22.40;;;7.75;;
37973;SDS011;23796;51.458;7.000;2023-02-05T01:24:02;20.63;;;8.07;;
37973;SDS011;23796;51.458;7.000;2023-02-05T01:26:27;19.02;;;7.18;;
37973;SDS011;23796;51.458;7.000;2023-02-05T01:28:53;22.67;;;7.85;;
37973;SDS011;23796;51.458;7.000;2023-02-05T01:31:18;17.88;;;6.72;;
37973;SDS011;23796;51.458;7.000;2023-02-05T01:33:46;19.50;;;7.10;;
37973;SDS011;23796;51.458;7.000;2023-02-05T01:36:11;20.48;;;7.40;;
37973;SDS011;23796;51.458;7.000;2023-02-05T01:38:39;21.70;;;7.38;;
37973;SDS011;23796;51.458;7.000;2023-02-05T01:41:07;18.38;;;7.35;;
37973;SDS011;23796;51.458;7.000;2023-02-05T01:43:33;25.17;;;6.85;;
37973;SDS011;23796;51.458;7.000;2023-02-05T01:46:03;20.60;;;7.18;;
37973;SDS011;23796;51.458;7.000;2023-02-05T01:48:41;22.48;;;6.82;;
37973;SDS011;23796;51.458;7.000;2023-02-05T01:51:10;18.35;;;5.95;;
37973;SDS011;23796;51.458;7.000;2023-02-05T01:53:39;18.48;;;7.82;;
37973;SDS011;23796;51.458;7.000;2023-02-05T01:56:07;26.17;;;7.22;;
37973;SDS011;23796;51.458;7.000;2023-02-05T01:58:42;20.95;;;7.35;;
37973;SDS011;23796;51.458;7.000;2023-02-05T02:01:13;19.50;;;7.43;;
37973;SDS011;23796;51.458;7.000;2023-02-05T02:03:41;19.27;;;7.32;;
37973;SDS011;23796;51.458;7.000;2023-02-05T02:06:07;19.15;;;6.93;;
37973;SDS011;23796;51.458;7.000;2023-02-05T02:08:35;21.88;;;7.50;;
37973;SDS011;23796;51.458;7.000;2023-02-05T02:11:01;19.42;;;7.13;;
37973;SDS011;23796;51.458;7.000;2023-02-05T02:13:33;20.00;;;7.00;;
37973;SDS011;23796;51.458;7.000;2023-02-05T02:16:00;24.00;;;7.45;;
37973;SDS011;23796;51.458;7.000;2023-02-05T02:18:27;20.60;;;8.10;;
37973;SDS011;23796;51.458;7.000;2023-02-05T02:26:23;20.70;;;7.88;;
37973;SDS011;23796;51.458;7.000;2023-02-05T02:28:53;24.52;;;8.23;;
37973;SDS011;23796;51.458;7.000;2023-02-05T02:31:32;20.65;;;8.52;;
37973;SDS011;23796;51.458;7.000;2023-02-05T02:36:51;23.77;;;9.07;;
37973;SDS011;23796;51.458;7.000;2023-02-05T02:39:24;22.70;;;8.20;;
37973;SDS011;23796;51.458;7.000;2023-02-05T02:44:36;19.83;;;8.73;;
37973;SDS011;23796;51.458;7.000;2023-02-05T02:47:24;20.75;;;8.45;;
37973;SDS011;23796;51.458;7.000;2023-02-05T02:50:06;22.58;;;9.68;;
37973;SDS011;23796;51.458;7.000;2023-02-05T02:52:38;23.67;;;9.50;;
37973;SDS011;23796;51.458;7.000;2023-02-05T02:55:07;20.02;;;8.90;;
37973;SDS011;23796;51.458;7.000;2023-02-05T02:57:36;24.17;;;8.90;;
37973;SDS011;23796;51.458;7.000;2023-02-05T03:00:08;20.30;;;9.52;;
37973;SDS011;23796;51.458;7.000;2023-02-05T03:02:36;22.77;;;9.05;;
37973;SDS011;23796;51.458;7.000;2023-02-05T03:05:08;24.45;;;11.55;;
37973;SDS011;23796;51.458;7.000;2023-02-05T03:07:38;19.60;;;9.48;;
37973;SDS011;23796;51.458;7.000;2023-02-05T03:12:42;23.33;;;9.80;;
37973;SDS011;23796;51.458;7.000;2023-02-05T03:15:08;24.75;;;9.55;;
37973;SDS011;23796;51.458;7.000;2023-02-05T03:17:35;21.02;;;9.73;;
37973;SDS011;23796;51.458;7.000;2023-02-05T03:20:09;19.60;;;9.65;;
37973;SDS011;23796;51.458;7.000;2023-02-05T03:22:39;19.67;;;8.68;;
37973;SDS011;23796;51.458;7.000;2023-02-05T03:25:05;21.38;;;9.90;;
37973;SDS011;23796;51.458;7.000;2023-02-05T03:27:34;21.48;;;9.48;;
37973;SDS011;23796;51.458;7.000;2023-02-05T03:30:00;20.30;;;8.48;;
37973;SDS011;23796;51.458;7.000;2023-02-05T03:40:28;21.00;;;9.25;;
37973;SDS011;23796;51.458;7.000;2023-02-05T03:57:09;23.27;;;11.73;;
37973;SDS011;23796;51.458;7.000;2023-02-05T03:59:44;28.63;;;12.40;;
37973;SDS011;23796;51.458;7.000;2023-02-05T04:02:12;28.25;;;13.02;;
37973;SDS011;23796;51.458;7.000;2023-02-05T04:04:41;24.83;;;12.85;;
37973;SDS011;23796;51.458;7.000;2023-02-05T04:07:06;22.60;;;11.52;;
37973;SDS011;23796;51.458;7.000;2023-02-05T04:09:34;25.63;;;12.70;;
37973;SDS011;23796;51.458;7.000;2023-02-05T04:12:00;33.72;;;13.68;;
37973;SDS011;23796;51.458;7.000;2023-02-05T04:14:26;28.85;;;14.15;;
37973;SDS011;23796;51.458;7.000;2023-02-05T04:16:51;27.25;;;14.02;;
37973;SDS011;23796;51.458;7.000;2023-02-05T04:19:17;25.33;;;14.68;;
37973;SDS011;23796;51.458;7.000;2023-02-05T04:21:43;28.05;;;14.43;;
37973;SDS011;23796;51.458;7.000;2023-02-05T04:24:08;31.65;;;16.58;;
37973;SDS011;23796;51.458;7.000;2023-02-05T04:26:34;32.78;;;17.13;;
37973;SDS011;23796;51.458;7.000;2023-02-05T04:29:02;27.27;;;15.43;;
37973;SDS011;23796;51.458;7.000;2023-02-05T04:31:28;33.40;;;15.85;;
37973;SDS011;23796;51.458;7.000;2023-02-05T04:33:53;27.38;;;15.77;;
37973;SDS011;23796;51.458;7.000;2023-02-05T04:36:19;32.08;;;16.40;;
37973;SDS011;23796;51.458;7.000;2023-02-05T04:38:46;29.10;;;15.32;;
37973;SDS011;23796;51.458;7.000;2023-02-05T04:41:15;26.05;;;14.38;;
37973;SDS011;23796;51.458;7.000;2023-02-05T04:43:43;30.33;;;15.10;;
37973;SDS011;23796;51.458;7.000;2023-02-05T04:46:09;22.23;;;13.50;;
37973;SDS011;23796;51.458;7.000;2023-02-05T04:48:36;22.10;;;12.73;;
37973;SDS011;23796;51.458;7.000;2023-02-05T04:51:09;22.58;;;13.07;;
37973;SDS011;23796;51.458;7.000;2023-02-05T04:53:36;19.52;;;11.48;;
37973;SDS011;23796;51.458;7.000;2023-02-05T04:56:06;20.45;;;13.52;;
37973;SDS011;23796;51.458;7.000;2023-02-05T04:58:40;21.52;;;13.30;;
37973;SDS011;23796;51.458;7.000;2023-02-05T05:01:14;19.52;;;14.05;;
37973;SDS011;23796;51.458;7.000;2023-02-05T05:03:41;22.38;;;15.60;;
37973;SDS011;23796;51.458;7.000;2023-02-05T05:06:09;26.45;;;18.02;;
37973;SDS011;23796;51.458;7.000;2023-02-05T05:08:37;23.60;;;17.48;;
37973;SDS011;23796;51.458;7.000;2023-02-05T05:11:07;25.00;;;16.67;;
37973;SDS011;23796;51.458;7.000;2023-02-05T05:13:35;24.17;;;17.50;;
37973;SDS011;23796;51.458;7.000;2023-02-05T05:16:01;31.00;;;19.13;;
37973;SDS011;23796;51.458;7.000;2023-02-05T05:18:29;23.02;;;17.02;;
37973;SDS011;23796;51.458;7.000;2023-02-05T05:20:58;24.77;;;18.23;;
37973;SDS011;23796;51.458;7.000;2023-02-05T05:23:24;24.08;;;17.80;;
37973;SDS011;23796;51.458;7.000;2023-02-05T05:25:50;28.58;;;17.77;;
37973;SDS011;23796;51.458;7.000;2023-02-05T05:28:16;24.77;;;18.10;;
37973;SDS011;23796;51.458;7.000;2023-02-05T05:30:42;23.95;;;18.27;;
37973;SDS011;23796;51.458;7.000;2023-02-05T05:33:09;29.33;;;19.40;;
37973;SDS011;23796;51.458;7.000;2023-02-05T05:35:35;29.83;;;17.75;;
37973;SDS011;23796;51.458;7.000;2023-02-05T05:38:01;27.20;;;19.17;;
37973;SDS011;23796;51.458;7.000;2023-02-05T05:40:30;29.73;;;19.65;;
37973;SDS011;23796;51.458;7.000;2023-02-05T05:43:15;30.08;;;19.50;;
37973;SDS011;23796;51.458;7.000;2023-02-05T05:46:02;31.02;;;18.98;;
37973;SDS011;23796;51.458;7.000;2023-02-05T05:48:28;32.00;;;21.38;;
37973;SDS011;23796;51.458;7.000;2023-02-05T05:50:56;27.45;;;20.17;;
37973;SDS011;23796;51.458;7.000;2023-02-05T05:53:22;32.33;;;21.17;;
37973;SDS011;23796;51.458;7.000;2023-02-05T05:55:48;33.97;;;22.85;;
37973;SDS011;23796;51.458;7.000;2023-02-05T05:58:14;38.63;;;22.65;;
37973;SDS011;23796;51.458;7.000;2023-02-05T06:00:40;38.17;;;22.83;;
37973;SDS011;23796;51.458;7.000;2023-02-05T06:03:09;34.10;;;22.45;;
37973;SDS011;23796;51.458;7.000;2023-02-05T06:05:35;34.95;;;23.05;;
37973;SDS011;23796;51.458;7.000;2023-02-05T06:08:01;34.58;;;23.30;;
37973;SDS011;23796;51.458;7.000;2023-02-05T06:10:27;34.17;;;24.45;;
37973;SDS011;23796;51.458;7.000;2023-02-05T06:12:53;35.22;;;23.23;;
37973;SDS011;23796;51.458;7.000;2023-02-05T06:15:19;31.40;;;22.25;;
37973;SDS011;23796;51.458;7.000;2023-02-05T06:17:45;33.67;;;23.42;;
37973;SDS011;23796;51.458;7.000;2023-02-05T06:20:13;32.53;;;22.83;;
37973;SDS011;23796;51.458;7.000;2023-02-05T06:22:39;34.10;;;23.05;;
37973;SDS011;23796;51.458;7.000;2023-02-05T06:25:07;32.85;;;22.92;;
37973;SDS011;23796;51.458;7.000;2023-02-05T06:27:33;31.13;;;22.73;;
37973;SDS011;23796;51.458;7.000;2023-02-05T06:30:00;32.38;;;23.65;;
37973;SDS011;23796;51.458;7.000;2023-02-05T06:32:28;32.33;;;23.25;;
37973;SDS011;23796;51.458;7.000;2023-02-05T06:34:54;30.67;;;22.23;;
37973;SDS011;23796;51.458;7.000;2023-02-05T06:37:19;32.65;;;23.30;;
37973;SDS011;23796;51.458;7.000;2023-02-05T06:39:45;36.40;;;23.38;;
37973;SDS011;23796;51.458;7.000;2023-02-05T06:42:13;32.95;;;23.92;;
37973;SDS011;23796;51.458;7.000;2023-02-05T06:44:41;30.52;;;21.75;;
37973;SDS011;23796;51.458;7.000;2023-02-05T06:47:07;31.70;;;22.90;;
37973;SDS011;23796;51.458;7.000;2023-02-05T06:49:32;30.25;;;22.05;;
37973;SDS011;23796;51.458;7.000;2023-02-05T06:52:00;30.70;;;21.25;;
37973;SDS011;23796;51.458;7.000;2023-02-05T06:54:25;31.75;;;22.90;;
37973;SDS011;23796;51.458;7.000;2023-02-05T06:56:51;30.50;;;22.05;;
37973;SDS011;23796;51.458;7.000;2023-02-05T06:59:19;28.38;;;22.40;;
37973;SDS011;23796;51.458;7.000;2023-02-05T07:01:44;34.25;;;23.35;;
37973;SDS011;23796;51.458;7.000;2023-02-05T07:04:15;32.17;;;23.45;;
37973;SDS011;23796;51.458;7.000;2023-02-05T07:06:40;33.85;;;23.98;;
37973;SDS011;23796;51.458;7.000;2023-02-05T07:09:08;37.33;;;25.80;;
37973;SDS011;23796;51.458;7.000;2023-02-05T07:11:34;34.08;;;24.13;;
37973;SDS011;23796;51.458;7.000;2023-02-05T07:14:00;24.10;;;18.90;;
37973;SDS011;23796;51.458;7.000;2023-02-05T07:16:29;32.30;;;22.38;;
37973;SDS011;23796;51.458;7.000;2023-02-05T07:18:56;28.52;;;21.50;;
37973;SDS011;23796;51.458;7.000;2023-02-05T07:21:22;24.95;;;20.27;;
37973;SDS011;23796;51.458;7.000;2023-02-05T07:23:48;26.80;;;20.13;;
37973;SDS011;23796;51.458;7.000;2023-02-05T07:26:15;26.73;;;20.75;;
37973;SDS011;23796;51.458;7.000;2023-02-05T07:28:41;29.52;;;21.77;;
37973;SDS011;23796;51.458;7.000;2023-02-05T07:31:12;28.05;;;21.45;;
37973;SDS011;23796;51.458;7.000;2023-02-05T07:33:40;24.70;;;20.98;;
37973;SDS011;23796;51.458;7.000;2023-02-05T07:36:07;25.35;;;20.73;;
37973;SDS011;23796;51.458;7.000;2023-02-05T07:38:35;28.50;;;21.92;;
37973;SDS011;23796;51.458;7.000;2023-02-05T07:41:02;27.23;;;21.42;;
37973;SDS011;23796;51.458;7.000;2023-02-05T07:43:32;26.25;;;20.02;;
37973;SDS011;23796;51.458;7.000;2023-02-05T07:45:59;30.10;;;20.27;;
37973;SDS011;23796;51.458;7.000;2023-02-05T07:48:32;25.13;;;20.33;;
37973;SDS011;23796;51.458;7.000;2023-02-05T07:50:58;20.45;;;16.02;;
37973;SDS011;23796;51.458;7.000;2023-02-05T07:53:24;19.85;;;14.75;;
37973;SDS011;23796;51.458;7.000;2023-02-05T07:55:50;18.30;;;13.70;;
37973;SDS011;23796;51.458;7.000;2023-02-05T07:58:18;17.08;;;13.00;;
37973;SDS011;23796;51.458;7.000;2023-02-05T08:00:44;16.83;;;12.95;;
37973;SDS011;23796;51.458;7.000;2023-02-05T08:03:12;18.83;;;14.35;;
37973;SDS011;23796;51.458;7.000;2023-02-05T08:05:38;16.85;;;13.82;;
37973;SDS011;23796;51.458;7.000;2023-02-05T08:08:04;19.08;;;13.90;;
37973;SDS011;23796;51.458;7.000;2023-02-05T08:10:32;16.02;;;12.52;;
37973;SDS011;23796;51.458;7.000;2023-02-05T08:13:00;16.13;;;12.27;;
37973;SDS011;23796;51.458;7.000;2023-02-05T08:15:25;18.30;;;13.02;;
37973;SDS011;23796;51.458;7.000;2023-02-05T08:17:52;16.30;;;12.30;;
37973;SDS011;23796;51.458;7.000;2023-02-05T08:20:17;15.75;;;11.55;;
37973;SDS011;23796;51.458;7.000;2023-02-05T08:22:43;13.07;;;11.30;;
37973;SDS011;23796;51.458;7.000;2023-02-05T08:25:10;12.68;;;9.13;;
37973;SDS011;23796;51.458;7.000;2023-02-05T08:27:40;12.05;;;8.90;;
37973;SDS011;23796;51.458;7.000;2023-02-05T08:30:08;10.07;;;7.53;;
37973;SDS011;23796;51.458;7.000;2023-02-05T08:32:40;10.35;;;6.80;;
37973;SDS011;23796;51.458;7.000;2023-02-05T08:35:06;10.00;;;6.70;;
37973;SDS011;23796;51.458;7.000;2023-02-05T08:37:35;7.25;;;4.05;;
37973;SDS011;23796;51.458;7.000;2023-02-05T08:40:01;5.22;;;2.95;;
37973;SDS011;23796;51.458;7.000;2023-02-05T08:42:28;7.45;;;2.95;;
37973;SDS011;23796;51.458;7.000;2023-02-05T08:44:56;4.20;;;2.50;;
37973;SDS011;23796;51.458;7.000;2023-02-05T08:47:25;5.78;;;2.50;;
37973;SDS011;23796;51.458;7.000;2023-02-05T08:49:53;4.00;;;1.42;;
37973;SDS011;23796;51.458;7.000;2023-02-05T08:52:19;3.38;;;1.60;;
37973;SDS011;23796;51.458;7.000;2023-02-05T08:54:47;5.05;;;1.40;;
37973;SDS011;23796;51.458;7.000;2023-02-05T08:57:13;2.83;;;0.85;;
37973;SDS011;23796;51.458;7.000;2023-02-05T08:59:40;2.70;;;0.80;;
37973;SDS011;23796;51.458;7.000;2023-02-05T09:02:06;2.53;;;0.70;;
37973;SDS011;23796;51.458;7.000;2023-02-05T09:04:36;3.42;;;0.82;;
37973;SDS011;23796;51.458;7.000;2023-02-05T09:07:03;3.15;;;0.70;;
37973;SDS011;23796;51.458;7.000;2023-02-05T09:09:30;2.80;;;0.65;;
37973;SDS011;23796;51.458;7.000;2023-02-05T09:11:56;2.33;;;0.50;;
37973;SDS011;23796;51.458;7.000;2023-02-05T09:14:24;3.47;;;0.90;;
37973;SDS011;23796;51.458;7.000;2023-02-05T09:16:50;2.38;;;0.68;;
37973;SDS011;23796;51.458;7.000;2023-02-05T09:19:19;4.93;;;0.88;;
37973;SDS011;23796;51.458;7.000;2023-02-05T09:21:47;2.55;;;0.63;;
37973;SDS011;23796;51.458;7.000;2023-02-05T09:24:12;3.70;;;0.65;;
37973;SDS011;23796;51.458;7.000;2023-02-05T09:26:38;2.42;;;0.57;;
37973;SDS011;23796;51.458;7.000;2023-02-05T09:29:06;3.55;;;0.90;;
37973;SDS011;23796;51.458;7.000;2023-02-05T09:31:31;4.10;;;0.52;;
37973;SDS011;23796;51.458;7.000;2023-02-05T09:33:57;3.40;;;0.90;;
37973;SDS011;23796;51.458;7.000;2023-02-05T09:36:22;2.38;;;0.40;;
37973;SDS011;23796;51.458;7.000;2023-02-05T09:38:51;1.38;;;0.45;;
37973;SDS011;23796;51.458;7.000;2023-02-05T09:44:42;2.65;;;0.57;;
37973;SDS011;23796;51.458;7.000;2023-02-05T09:47:33;2.83;;;0.90;;
37973;SDS011;23796;51.458;7.000;2023-02-05T09:50:16;3.72;;;1.05;;
37973;SDS011;23796;51.458;7.000;2023-02-05T09:52:52;5.22;;;0.70;;
37973;SDS011;23796;51.458;7.000;2023-02-05T09:55:28;3.88;;;1.55;;
37973;SDS011;23796;51.458;7.000;2023-02-05T09:57:57;5.68;;;1.23;;
37973;SDS011;23796;51.458;7.000;2023-02-05T10:00:31;4.47;;;1.08;;
37973;SDS011;23796;51.458;7.000;2023-02-05T10:08:57;4.75;;;0.98;;
37973;SDS011;23796;51.458;7.000;2023-02-05T10:14:32;6.13;;;1.23;;
37973;SDS011;23796;51.458;7.000;2023-02-05T10:33:07;5.88;;;1.33;;
37973;SDS011;23796;51.458;7.000;2023-02-05T10:35:56;6.25;;;1.40;;
37973;SDS011;23796;51.458;7.000;2023-02-05T10:38:28;8.60;;;1.50;;
37973;SDS011;23796;51.458;7.000;2023-02-05T10:41:03;10.75;;;1.85;;
37973;SDS011;23796;51.458;7.000;2023-02-05T10:43:49;8.32;;;1.45;;
37973;SDS011;23796;51.458;7.000;2023-02-05T10:46:20;5.93;;;1.30;;
37973;SDS011;23796;51.458;7.000;2023-02-05T10:51:34;3.97;;;1.33;;
37973;SDS011;23796;51.458;7.000;2023-02-05T10:54:04;4.57;;;1.10;;
37973;SDS011;23796;51.458;7.000;2023-02-05T10:56:40;7.57;;;1.30;;
37973;SDS011;23796;51.458;7.000;2023-02-05T10:59:08;5.68;;;1.40;;
37973;SDS011;23796;51.458;7.000;2023-02-05T11:01:44;7.05;;;1.13;;
37973;SDS011;23796;51.458;7.000;2023-02-05T11:04:14;6.70;;;1.30;;
37973;SDS011;23796;51.458;7.000;2023-02-05T11:06:47;6.78;;;1.17;;
37973;SDS011;23796;51.458;7.000;2023-02-05T11:11:49;6.15;;;1.50;;
37973;SDS011;23796;51.458;7.000;2023-02-05T11:14:20;5.72;;;1.23;;
37973;SDS011;23796;51.458;7.000;2023-02-05T11:16:59;5.97;;;1.00;;
37973;SDS011;23796;51.458;7.000;2023-02-05T11:19:31;9.82;;;2.00;;
37973;SDS011;23796;51.458;7.000;2023-02-05T11:21:59;6.15;;;1.55;;
37973;SDS011;23796;51.458;7.000;2023-02-05T11:24:31;4.95;;;1.00;;
37973;SDS011;23796;51.458;7.000;2023-02-05T11:29:49;3.08;;;0.70;;
37973;SDS011;23796;51.458;7.000;2023-02-05T11:32:19;6.63;;;2.17;;
37973;SDS011;23796;51.458;7.000;2023-02-05T11:34:45;7.28;;;1.17;;
37973;SDS011;23796;51.458;7.000;2023-02-05T11:37:15;8.18;;;1.35;;
37973;SDS011;23796;51.458;7.000;2023-02-05T11:39:44;5.13;;;1.65;;
37973;SDS011;23796;51.458;7.000;2023-02-05T11:42:19;5.25;;;1.23;;
37973;SDS011;23796;51.458;7.000;2023-02-05T11:44:49;6.38;;;1.40;;
37973;SDS011;23796;51.458;7.000;2023-02-05T11:47:27;6.80;;;1.25;;
37973;SDS011;23796;51.458;7.000;2023-02-05T11:49:56;6.45;;;1.23;;
37973;SDS011;23796;51.458;7.000;2023-02-05T11:52:27;9.25;;;1.67;;
37973;SDS011;23796;51.458;7.000;2023-02-05T11:54:55;5.85;;;1.52;;
37973;SDS011;23796;51.458;7.000;2023-02-05T11:59:56;7.85;;;2.53;;
37973;SDS011;23796;51.458;7.000;2023-02-05T12:07:59;5.63;;;2.22;;
37973;SDS011;23796;51.458;7.000;2023-02-05T12:13:42;5.53;;;1.73;;
37973;SDS011;23796;51.458;7.000;2023-02-05T12:16:25;8.30;;;2.20;;
37973;SDS011;23796;51.458;7.000;2023-02-05T12:21:53;5.85;;;1.50;;
37973;SDS011;23796;51.458;7.000;2023-02-05T12:30:11;6.55;;;1.08;;
37973;SDS011;23796;51.458;7.000;2023-02-05T12:43:55;5.03;;;1.10;;
37973;SDS011;23796;51.458;7.000;2023-02-05T13:00:09;4.78;;;2.20;;
37973;SDS011;23796;51.458;7.000;2023-02-05T13:05:24;7.25;;;2.15;;
37973;SDS011;23796;51.458;7.000;2023-02-05T13:13:24;7.63;;;2.53;;
37973;SDS011;23796;51.458;7.000;2023-02-05T13:15:59;8.55;;;2.03;;
37973;SDS011;23796;51.458;7.000;2023-02-05T13:18:33;6.63;;;1.70;;
37973;SDS011;23796;51.458;7.000;2023-02-05T13:21:04;8.85;;;1.92;;
37973;SDS011;23796;51.458;7.000;2023-02-05T13:23:51;6.97;;;1.73;;
37973;SDS011;23796;51.458;7.000;2023-02-05T13:26:45;7.43;;;1.95;;
37973;SDS011;23796;51.458;7.000;2023-02-05T13:29:32;8.75;;;1.60;;
37973;SDS011;23796;51.458;7.000;2023-02-05T13:32:08;8.27;;;2.05;;
37973;SDS011;23796;51.458;7.000;2023-02-05T13:34:39;8.60;;;2.30;;
37973;SDS011;23796;51.458;7.000;2023-02-05T13:51:08;7.85;;;1.60;;
37973;SDS011;23796;51.458;7.000;2023-02-05T13:58:58;6.50;;;1.60;;
37973;SDS011;23796;51.458;7.000;2023-02-05T14:01:29;6.07;;;1.65;;
37973;SDS011;23796;51.458;7.000;2023-02-05T14:04:06;4.70;;;1.15;;
37973;SDS011;23796;51.458;7.000;2023-02-05T14:09:55;7.68;;;1.73;;
37973;SDS011;23796;51.458;7.000;2023-02-05T14:12:28;8.07;;;1.98;;
37973;SDS011;23796;51.458;7.000;2023-02-05T14:22:55;6.80;;;1.60;;
37973;SDS011;23796;51.458;7.000;2023-02-05T14:32:59;7.32;;;1.83;;
37973;SDS011;23796;51.458;7.000;2023-02-05T14:35:30;8.85;;;1.70;;
37973;SDS011;23796;51.458;7.000;2023-02-05T14:44:05;8.85;;;2.08;;
37973;SDS011;23796;51.458;7.000;2023-02-05T14:47:04;7.15;;;1.73;;
37973;SDS011;23796;51.458;7.000;2023-02-05T14:49:33;5.18;;;1.50;;
37973;SDS011;23796;51.458;7.000;2023-02-05T14:52:03;7.47;;;1.67;;
37973;SDS011;23796;51.458;7.000;2023-02-05T14:54:43;6.53;;;1.50;;
37973;SDS011;23796;51.458;7.000;2023-02-05T14:59:47;6.22;;;1.55;;
37973;SDS011;23796;51.458;7.000;2023-02-05T15:08:01;12.40;;;3.38;;
37973;SDS011;23796;51.458;7.000;2023-02-05T15:10:34;8.60;;;2.00;;
37973;SDS011;23796;51.458;7.000;2023-02-05T15:13:21;8.70;;;1.70;;
37973;SDS011;23796;51.458;7.000;2023-02-05T15:21:42;7.70;;;1.85;;
37973;SDS011;23796;51.458;7.000;2023-02-05T15:29:29;9.90;;;1.98;;
37973;SDS011;23796;51.458;7.000;2023-02-05T15:32:00;11.13;;;2.60;;
37973;SDS011;23796;51.458;7.000;2023-02-05T15:34:54;6.72;;;1.90;;
37973;SDS011;23796;51.458;7.000;2023-02-05T15:40:24;10.25;;;2.85;;
37973;SDS011;23796;51.458;7.000;2023-02-05T15:42:52;12.55;;;4.07;;
37973;SDS011;23796;51.458;7.000;2023-02-05T15:48:01;12.32;;;2.50;;
37973;SDS011;23796;51.458;7.000;2023-02-05T15:50:43;14.52;;;2.65;;
37973;SDS011;23796;51.458;7.000;2023-02-05T15:53:37;11.85;;;3.22;;
37973;SDS011;23796;51.458;7.000;2023-02-05T15:56:21;12.40;;;3.15;;
37973;SDS011;23796;51.458;7.000;2023-02-05T15:59:32;13.10;;;3.42;;
37973;SDS011;23796;51.458;7.000;2023-02-05T16:04:38;13.90;;;3.63;;
37973;SDS011;23796;51.458;7.000;2023-02-05T16:07:21;15.48;;;4.38;;
37973;SDS011;23796;51.458;7.000;2023-02-05T16:09:49;16.77;;;3.83;;
37973;SDS011;23796;51.458;7.000;2023-02-05T16:12:16;14.25;;;3.88;;
37973;SDS011;23796;51.458;7.000;2023-02-05T16:14:42;13.35;;;3.70;;
37973;SDS011;23796;51.458;7.000;2023-02-05T16:17:18;14.70;;;3.15;;
37973;SDS011;23796;51.458;7.000;2023-02-05T16:19:51;17.33;;;3.65;;
37973;SDS011;23796;51.458;7.000;2023-02-05T16:27:42;17.05;;;4.07;;
37973;SDS011;23796;51.458;7.000;2023-02-05T16:30:23;11.80;;;2.67;;
37973;SDS011;23796;51.458;7.000;2023-02-05T16:32:52;17.77;;;4.32;;
37973;SDS011;23796;51.458;7.000;2023-02-05T16:37:53;15.00;;;2.97;;
37973;SDS011;23796;51.458;7.000;2023-02-05T16:40:32;17.90;;;2.92;;
37973;SDS011;23796;51.458;7.000;2023-02-05T16:43:43;16.27;;;3.88;;
37973;SDS011;23796;51.458;7.000;2023-02-05T16:48:33;17.77;;;3.90;;
37973;SDS011;23796;51.458;7.000;2023-02-05T16:51:55;10.88;;;3.00;;
37973;SDS011;23796;51.458;7.000;2023-02-05T16:54:22;14.63;;;3.03;;
37973;SDS011;23796;51.458;7.000;2023-02-05T16:56:52;15.00;;;3.50;;
37973;SDS011;23796;51.458;7.000;2023-02-05T16:59:27;17.70;;;3.58;;
37973;SDS011;23796;51.458;7.000;2023-02-05T17:02:03;16.58;;;3.95;;
37973;SDS011;23796;51.458;7.000;2023-02-05T17:04:38;16.65;;;3.22;;
37973;SDS011;23796;51.458;7.000;2023-02-05T17:07:13;18.00;;;4.57;;
37973;SDS011;23796;51.458;7.000;2023-02-05T17:09:44;15.60;;;3.90;;
37973;SDS011;23796;51.458;7.000;2023-02-05T17:15:01;15.30;;;4.00;;
37973;SDS011;23796;51.458;7.000;2023-02-05T17:17:48;18.85;;;4.15;;
37973;SDS011;23796;51.458;7.000;2023-02-05T17:20:22;18.60;;;4.20;;
37973;SDS011;23796;51.458;7.000;2023-02-05T17:23:05;17.70;;;4.43;;
37973;SDS011;23796;51.458;7.000;2023-02-05T17:25:42;15.43;;;4.20;;
37973;SDS011;23796;51.458;7.000;2023-02-05T17:31:43;19.02;;;4.18;;
37973;SDS011;23796;51.458;7.000;2023-02-05T17:34:11;15.07;;;4.50;;
37973;SDS011;23796;51.458;7.000;2023-02-05T17:36:37;26.13;;;4.63;;
37973;SDS011;23796;51.458;7.000;2023-02-05T17:39:06;19.63;;;3.90;;
37973;SDS011;23796;51.458;7.000;2023-02-05T17:41:35;12.98;;;3.10;;
37973;SDS011;23796;51.458;7.000;2023-02-05T17:44:25;12.38;;;3.80;;
37973;SDS011;23796;51.458;7.000;2023-02-05T17:47:11;18.25;;;3.13;;
37973;SDS011;23796;51.458;7.000;2023-02-05T17:49:42;20.65;;;4.32;;
37973;SDS011;23796;51.458;7.000;2023-02-05T17:52:22;16.42;;;3.90;;
37973;SDS011;23796;51.458;7.000;2023-02-05T17:54:48;25.02;;;6.18;;
37973;SDS011;23796;51.458;7.000;2023-02-05T17:57:18;17.55;;;3.58;;
37973;SDS011;23796;51.458;7.000;2023-02-05T17:59:45;16.75;;;3.92;;
37973;SDS011;23796;51.458;7.000;2023-02-05T18:02:11;18.95;;;3.58;;
37973;SDS011;23796;51.458;7.000;2023-02-05T18:04:37;18.52;;;4.72;;
37973;SDS011;23796;51.458;7.000;2023-02-05T18:07:04;17.15;;;3.95;;
37973;SDS011;23796;51.458;7.000;2023-02-05T18:09:42;14.63;;;3.90;;
37973;SDS011;23796;51.458;7.000;2023-02-05T18:12:07;20.35;;;4.47;;
37973;SDS011;23796;51.458;7.000;2023-02-05T18:14:33;14.27;;;3.35;;
37973;SDS011;23796;51.458;7.000;2023-02-05T18:16:59;15.68;;;4.00;;
37973;SDS011;23796;51.458;7.000;2023-02-05T18:19:32;16.70;;;4.03;;
37973;SDS011;23796;51.458;7.000;2023-02-05T18:21:58;20.25;;;5.05;;
37973;SDS011;23796;51.458;7.000;2023-02-05T18:29:06;15.98;;;3.72;;